Terminal Aerodrome Forecast
Issued by NWS

Home | Current Version | Previous Version | Text Only | Print | Product List | Glossary On
Versions: 1 2 3 4 5 6 7 8 9 10 11 12 13 14 15 16 17 18 19
572
FTUS46 KPDT 192341
TAFRDM
TAF
KRDM 192341Z 2000/2024 20012G19KT P6SM SCT070 OVC100
     FM200100 19007KT P6SM BKN100 BKN250
     FM200800 17008KT 6SM -RASN BR BKN040 OVC060
     FM201400 18010KT P6SM -RA OVC035
     FM201800 20018G28KT P6SM SCT050 BKN100=

USA.gov is the U.S. government's official web portal to all federal, state and local government web resources and services.